CheckWX is a tool to help pilots better visualize weather data.  It is not intended as a substitute for an official pre-flight weather briefing.

16:53:35 UTC

KRFD TAF
Chicago / Rockford International Airport
Chicago/Rockford, Illinois, USA
KRFD 111514Z 1115/1212 28006KT P6SM -SN BKN050 OVC100 FM111600 30008KT P6SM FEW250 FM112200 31005KT P6SM FEW100 SCT250 FM120200 10004KT P6SM SCT100 BKN250 FM120900 14010KT P6SM OVC250

Dec-11@
15:00 UTC

Dec-11 @ 15:00 UTC

Dec-11@
16:00 UTC

Dec-11 @ 16:00 UTC

KRFD 111514Z 1115/1212 28006KT P6SM -SN BKN050 OVC100

Expired

Wind
  • 280° at 6 KTS
Conditions
Light Snow
Cloud Levels
  • Broken at 5,000' AGL
  • Overcast at 10,000' AGL

Dec-11@
16:00 UTC

Dec-11 @ 16:00 UTC

Dec-11@
22:00 UTC

Dec-11 @ 22:00 UTC

FM111600 30008KT P6SM FEW250

From

From Standard forecast or significant change

Wind
  • 300° at 8 KTS
Cloud Levels
  • Few at 25,000' AGL

Dec-11@
22:00 UTC

Dec-11 @ 22:00 UTC

Dec-12@
02:00 UTC

Dec-12 @ 02:00 UTC

FM112200 31005KT P6SM FEW100 SCT250

From

From Standard forecast or significant change

Wind
  • 310° at 5 KTS
Cloud Levels
  • Few at 10,000' AGL
  • Scattered at 25,000' AGL

Dec-12@
02:00 UTC

Dec-12 @ 02:00 UTC

Dec-12@
09:00 UTC

Dec-12 @ 09:00 UTC

FM120200 10004KT P6SM SCT100 BKN250

From

From Standard forecast or significant change

Wind
  • 100° at 4 KTS
Cloud Levels
  • Scattered at 10,000' AGL
  • Broken at 25,000' AGL

Dec-12@
09:00 UTC

Dec-12 @ 09:00 UTC

Dec-12@
12:00 UTC

Dec-12 @ 12:00 UTC

FM120900 14010KT P6SM OVC250

From

From Standard forecast or significant change

Wind
  • 140° at 10 KTS
Cloud Levels
  • Overcast at 25,000' AGL